Wetterdaten: Woche 24.01.05 - 30.01.05 (KW4)
Datum Zeit Temperatur Luftfeuchte Luftdruck Niederschlag Windrichtung Taupunkt Windchill Wind
24.01.2005 00:00 -2,3 C 74 % 1014 hPa 0,0 l/m SW -6,4 C -6,3 C 11,9 km/h (2 Bft)
24.01.2005 01:00 -2,0 C 68 % 1013 hPa 0,0 l/m SW -7,1 C -7,5 C 14,6 km/h (3 Bft)
24.01.2005 02:00 -2,2 C 77 % 1012 hPa 0,0 l/m W -5,8 C -8,9 C 16,0 km/h (3 Bft)
24.01.2005 03:00 -2,8 C 92 % 1012 hPa 0,0 l/m SW -3,9 C -9,7 C 16,2 km/h (3 Bft)
24.01.2005 04:00 -2,8 C 94 % 1011 hPa 0,0 l/m W-SW -3,7 C -8,2 C 13,7 km/h (3 Bft)
24.01.2005 05:00 -2,8 C 92 % 1010 hPa 0,0 l/m W-SW -3,9 C -8,5 C 13,8 km/h (3 Bft)
24.01.2005 06:00 -2,7 C 89 % 1010 hPa 0,0 l/m W-SW -4,3 C -8,7 C 14,3 km/h (3 Bft)
24.01.2005 07:00 -2,8 C 86 % 1011 hPa 0,0 l/m N-NW -4,9 C -9,4 C 15,5 km/h (3 Bft)
24.01.2005 08:00 -3,3 C 90 % 1011 hPa 0,0 l/m N-NW -4,7 C -8,1 C 12,9 km/h (3 Bft)
24.01.2005 09:00 -3,2 C 89 % 1011 hPa 0,0 l/m N-NW -4,8 C -4,8 C 7,9 km/h (2 Bft)
24.01.2005 10:00 -2,8 C 81 % 1012 hPa 0,0 l/m N-NW -5,6 C -8,6 C 15,2 km/h (3 Bft)
24.01.2005 11:00 -2,9 C 67 % 1012 hPa 0,0 l/m N-NW -8,2 C -10,3 C 17,4 km/h (3 Bft)
24.01.2005 12:00 -2,4 C 60 % 1013 hPa 0,0 l/m N -9,0 C -8,0 C 13,9 km/h (3 Bft)
24.01.2005 13:00 -1,6 C 64 % 1013 hPa 0,0 l/m N -7,5 C -5,8 C 12,4 km/h (3 Bft)
24.01.2005 14:00 -2,5 C 77 % 1013 hPa 0,0 l/m N-NW -6,1 C -6,3 C 11,4 km/h (2 Bft)
24.01.2005 15:00 -2,9 C 78 % 1013 hPa 1,0 l/m NW -6,3 C -5,9 C 10,7 km/h (2 Bft)
24.01.2005 16:00 -3,3 C 79 % 1014 hPa 0,0 l/m NW -6,4 C -7,3 C 11,3 km/h (2 Bft)
24.01.2005 17:00 -3,7 C 82 % 1014 hPa 0,0 l/m N-NW -6,3 C -8,4 C 12,3 km/h (3 Bft)
24.01.2005 18:00 -4,2 C 81 % 1014 hPa 0,0 l/m NW -6,9 C -7,2 C 9,9 km/h (2 Bft)
24.01.2005 19:00 -4,3 C 85 % 1014 hPa 0,0 l/m NW -6,5 C -8,0 C 11,6 km/h (2 Bft)
24.01.2005 20:00 -4,4 C 84 % 1014 hPa 0,0 l/m NW -6,8 C -9,5 C 13,0 km/h (3 Bft)
24.01.2005 21:00 -4,4 C 85 % 1015 hPa 0,0 l/m NW -6,6 C -8,6 C 11,9 km/h (2 Bft)
24.01.2005 22:00 -4,8 C 84 % 1015 hPa 0,0 l/m NW -7,1 C -9,8 C 13,1 km/h (3 Bft)
24.01.2005 23:00 -5,0 C 84 % 1014 hPa 0,0 l/m N -7,3 C -9,8 C 12,9 km/h (3 Bft)
25.01.2005 00:00 -5,0 C 86 % 1014 hPa 0,0 l/m N -7,0 C -8,4 C 10,7 km/h (2 Bft)
25.01.2005 01:00 -5,1 C 90 % 1014 hPa 0,0 l/m N -6,5 C -10,1 C 13,3 km/h (3 Bft)
25.01.2005 02:00 -5,3 C 89 % 1014 hPa 0,0 l/m N -6,8 C -9,7 C 11,5 km/h (2 Bft)
25.01.2005 03:00 -5,5 C 90 % 1014 hPa 0,0 l/m NW -6,9 C -10,4 C 12,5 km/h (3 Bft)
25.01.2005 04:00 -5,8 C 89 % 1014 hPa 0,0 l/m NW -7,3 C -10,5 C 12,2 km/h (2 Bft)
25.01.2005 05:00 -5,9 C 90 % 1014 hPa 0,0 l/m N -7,2 C -10,6 C 12,7 km/h (3 Bft)
25.01.2005 06:00 -5,7 C 92 % 1014 hPa 0,0 l/m N-NW -6,9 C -11,1 C 13,4 km/h (3 Bft)
25.01.2005 07:00 -5,7 C 91 % 1015 hPa 0,0 l/m N -7,0 C -11,8 C 14,5 km/h (3 Bft)
25.01.2005 08:00 -5,7 C 91 % 1015 hPa 0,0 l/m N -6,9 C -9,9 C 11,4 km/h (2 Bft)
25.01.2005 09:00 -5,1 C 88 % 1015 hPa 0,0 l/m N -6,8 C -10,4 C 13,2 km/h (3 Bft)
25.01.2005 10:00 -4,5 C 76 % 1015 hPa 0,0 l/m N -8,1 C -12,1 C 17,2 km/h (3 Bft)
25.01.2005 11:00 -4,0 C 68 % 1015 hPa 0,0 l/m N -9,1 C -10,6 C 15,1 km/h (3 Bft)
25.01.2005 12:00 -3,9 C 66 % 1015 hPa 0,0 l/m N -9,3 C -10,2 C 14,4 km/h (3 Bft)
25.01.2005 13:00 -3,8 C 68 % 1015 hPa 0,0 l/m N-NW -8,8 C -10,7 C 15,4 km/h (3 Bft)
25.01.2005 14:00 -3,5 C 73 % 1014 hPa 0,0 l/m N -7,6 C -9,2 C 13,9 km/h (3 Bft)
25.01.2005 15:00 -3,7 C 77 % 1014 hPa 0,0 l/m N -7,1 C -9,4 C 13,7 km/h (3 Bft)
25.01.2005 16:00 -4,0 C 81 % 1014 hPa 0,0 l/m N -6,7 C -8,1 C 11,3 km/h (2 Bft)
25.01.2005 17:00 -4,4 C 85 % 1015 hPa 0,0 l/m N -6,5 C -8,3 C 11,6 km/h (2 Bft)
25.01.2005 18:00 -4,7 C 85 % 1015 hPa 0,0 l/m N -6,7 C -9,4 C 11,9 km/h (2 Bft)
25.01.2005 19:00 -5,0 C 85 % 1015 hPa 0,0 l/m N -7,1 C -9,4 C 11,9 km/h (2 Bft)
25.01.2005 20:00 -5,9 C 85 % 1015 hPa 0,0 l/m N -8,1 C -10,7 C 12,1 km/h (2 Bft)
25.01.2005 21:00 -6,3 C 85 % 1015 hPa 0,0 l/m N -8,3 C -13,0 C 14,5 km/h (3 Bft)
25.01.2005 22:00 -6,6 C 87 % 1015 hPa 0,0 l/m N-NO -8,3 C -11,4 C 12,2 km/h (2 Bft)
25.01.2005 23:00 -6,7 C 89 % 1015 hPa 0,0 l/m N-NO -8,2 C -12,8 C 13,6 km/h (3 Bft)
26.01.2005 00:00 -6,6 C 87 % 1015 hPa 0,0 l/m N -8,4 C -13,8 C 15,7 km/h (3 Bft)
26.01.2005 01:00 -6,8 C 87 % 1015 hPa 0,0 l/m N-NO -8,7 C -14,2 C 16,4 km/h (3 Bft)
26.01.2005 02:00 -7,4 C 88 % 1015 hPa 0,0 l/m N-NO -9,1 C -13,7 C 14,6 km/h (3 Bft)
26.01.2005 03:00 -7,6 C 90 % 1015 hPa 0,0 l/m N -9,0 C -13,3 C 12,8 km/h (3 Bft)
26.01.2005 04:00 -7,3 C 88 % 1015 hPa 0,0 l/m N-NO -9,0 C -15,5 C 17,3 km/h (3 Bft)
26.01.2005 05:00 -7,5 C 83 % 1015 hPa 0,0 l/m N-NO -9,9 C -17,2 C 19,3 km/h (3 Bft)
26.01.2005 06:00 -7,4 C 84 % 1015 hPa 0,0 l/m N-NO -9,7 C -15,4 C 15,8 km/h (3 Bft)
26.01.2005 07:00 -7,4 C 84 % 1016 hPa 0,0 l/m N-NO -9,6 C -15,4 C 17,0 km/h (3 Bft)
26.01.2005 08:00 -7,2 C 85 % 1016 hPa 0,0 l/m N-NO -9,3 C -15,7 C 16,9 km/h (3 Bft)
26.01.2005 09:00 -6,6 C 84 % 1016 hPa 0,0 l/m N -8,8 C -12,7 C 13,9 km/h (3 Bft)
26.01.2005 10:00 -6,0 C 83 % 1016 hPa 0,0 l/m N -8,3 C -13,6 C 16,1 km/h (3 Bft)
26.01.2005 11:00 -5,5 C 79 % 1017 hPa 0,0 l/m N-NO -8,5 C -14,3 C 18,6 km/h (3 Bft)
26.01.2005 12:00 -4,9 C 72 % 1017 hPa 0,0 l/m NO -9,2 C -13,9 C 19,0 km/h (3 Bft)
26.01.2005 13:00 -4,4 C 70 % 1016 hPa 0,0 l/m N-NO -9,1 C -11,6 C 15,5 km/h (3 Bft)
26.01.2005 14:00 -4,7 C 84 % 1016 hPa 0,0 l/m N -7,0 C -11,8 C 15,5 km/h (3 Bft)
26.01.2005 15:00 -4,9 C 84 % 1016 hPa 0,0 l/m N-NO -7,2 C -14,4 C 19,8 km/h (4 Bft)
26.01.2005 16:00 -5,2 C 86 % 1017 hPa 0,0 l/m N-NO -7,2 C -13,3 C 18,0 km/h (3 Bft)
26.01.2005 17:00 -5,5 C 87 % 1017 hPa 0,0 l/m N -7,4 C -12,2 C 14,9 km/h (3 Bft)
26.01.2005 18:00 -5,7 C 86 % 1017 hPa 0,0 l/m N -7,6 C -12,7 C 15,2 km/h (3 Bft)
26.01.2005 19:00 -6,1 C 85 % 1017 hPa 0,0 l/m N -8,2 C -13,8 C 16,6 km/h (3 Bft)
26.01.2005 20:00 -6,5 C 86 % 1017 hPa 0,0 l/m N -8,5 C -13,0 C 14,7 km/h (3 Bft)
26.01.2005 21:00 -7,0 C 85 % 1017 hPa 0,0 l/m N -9,0 C -15,3 C 17,2 km/h (3 Bft)
26.01.2005 22:00 -7,2 C 85 % 1017 hPa 0,0 l/m N -9,3 C -15,4 C 17,0 km/h (3 Bft)
26.01.2005 23:00 -7,9 C 82 % 1017 hPa 0,0 l/m N -10,3 C -15,4 C 16,1 km/h (3 Bft)
27.01.2005 00:00 -8,3 C 78 % 1017 hPa 0,0 l/m N-NO -11,3 C -17,4 C 17,7 km/h (3 Bft)
27.01.2005 01:00 -8,6 C 79 % 1017 hPa 0,0 l/m N -11,6 C -14,4 C 13,3 km/h (3 Bft)
27.01.2005 02:00 -8,8 C 79 % 1017 hPa 0,0 l/m N -11,7 C -12,8 C 10,6 km/h (2 Bft)
27.01.2005 03:00 -8,8 C 81 % 1017 hPa 0,0 l/m N-NO -11,4 C -10,6 C 7,0 km/h (2 Bft)
27.01.2005 04:00 -9,0 C 83 % 1016 hPa 0,0 l/m N -11,4 C -10,5 C 7,8 km/h (2 Bft)
27.01.2005 05:00 -9,0 C 84 % 1016 hPa 0,0 l/m N -11,2 C -11,1 C 8,4 km/h (2 Bft)
27.01.2005 06:00 -9,0 C 85 % 1016 hPa 0,0 l/m N -11,0 C -10,8 C 8,2 km/h (2 Bft)
27.01.2005 07:00 -8,9 C 86 % 1016 hPa 0,0 l/m N-NO -10,8 C -9,8 C 5,8 km/h (2 Bft)
27.01.2005 08:00 -8,7 C 85 % 1017 hPa 0,0 l/m N-NO -10,8 C -9,6 C 6,0 km/h (2 Bft)
27.01.2005 09:00 -8,2 C 81 % 1017 hPa 0,0 l/m NO -10,8 C -10,4 C 8,5 km/h (2 Bft)
27.01.2005 10:00 -7,7 C 73 % 1016 hPa 0,0 l/m N-NO -11,7 C -10,8 C 9,9 km/h (2 Bft)
27.01.2005 11:00 -7,1 C 72 % 1016 hPa 0,0 l/m N-NO -11,3 C -10,5 C 10,8 km/h (2 Bft)
27.01.2005 12:00 -7,0 C 65 % 1016 hPa 0,0 l/m N-NO -12,4 C -11,3 C 11,4 km/h (2 Bft)
27.01.2005 13:00 -6,2 C 57 % 1016 hPa 0,0 l/m N-NO -13,2 C -10,3 C 11,1 km/h (2 Bft)
27.01.2005 14:00 -5,9 C 53 % 1015 hPa 0,0 l/m O -13,8 C -9,2 C 9,6 km/h (2 Bft)
27.01.2005 15:00 -6,6 C 56 % 1015 hPa 0,0 l/m O-NO -13,9 C -8,9 C 8,0 km/h (2 Bft)
27.01.2005 16:00 -7,4 C 59 % 1015 hPa 0,0 l/m O -14,1 C -7,9 C 1,8 km/h (1 Bft)
27.01.2005 17:00 -8,8 C 61 % 1015 hPa 0,0 l/m N -14,8 C -8,8 C 0,0 km/h (0 Bft)
27.01.2005 18:00 -10,3 C 65 % 1015 hPa 0,0 l/m N -15,6 C -10,3 C 0,0 km/h (0 Bft)
27.01.2005 19:00 -10,9 C 65 % 1015 hPa 0,0 l/m N -16,1 C -10,9 C 0,0 km/h (0 Bft)
27.01.2005 20:00 -10,6 C 65 % 1015 hPa 0,0 l/m N -15,9 C -10,6 C 0,0 km/h (0 Bft)
27.01.2005 21:00 -11,2 C 65 % 1014 hPa 0,0 l/m N -16,5 C -11,2 C 0,0 km/h (0 Bft)
27.01.2005 22:00 -12,1 C 65 % 1014 hPa 0,0 l/m N -17,3 C -12,1 C 0,0 km/h (0 Bft)
27.01.2005 23:00 -13,2 C 65 % 1014 hPa 0,0 l/m N -18,3 C -13,2 C 0,0 km/h (0 Bft)
28.01.2005 00:00 -13,4 C 65 % 1014 hPa 0,0 l/m N -18,5 C -13,4 C 0,0 km/h (0 Bft)
28.01.2005 01:00 -13,2 C 65 % 1013 hPa 0,0 l/m N -18,3 C -13,2 C 0,0 km/h (0 Bft)
28.01.2005 02:00 -12,7 C 65 % 1013 hPa 0,0 l/m N -17,9 C -12,7 C 0,0 km/h (0 Bft)
28.01.2005 03:00 -12,4 C 65 % 1013 hPa 0,0 l/m N -17,6 C -12,4 C 0,0 km/h (0 Bft)
28.01.2005 04:00 -12,0 C 65 % 1012 hPa 0,0 l/m N -17,2 C -12,0 C 0,0 km/h (0 Bft)
28.01.2005 05:00 -11,5 C 65 % 1012 hPa 0,0 l/m N -16,7 C -11,5 C 0,0 km/h (0 Bft)
28.01.2005 06:00 -11,1 C 65 % 1012 hPa 0,0 l/m N -16,3 C -11,1 C 0,0 km/h (0 Bft)
28.01.2005 07:00 -10,8 C 65 % 1012 hPa 0,0 l/m N -16,1 C -10,8 C 0,0 km/h (0 Bft)
28.01.2005 08:00 -10,7 C 65 % 1012 hPa 0,0 l/m N -16,0 C -10,7 C 0,0 km/h (0 Bft)
28.01.2005 09:00 -10,5 C 65 % 1012 hPa 0,0 l/m N -15,7 C -10,5 C 0,0 km/h (0 Bft)
28.01.2005 10:00 -9,5 C 83 % 1012 hPa 0,0 l/m S -11,8 C -9,7 C 2,7 km/h (1 Bft)
28.01.2005 11:00 -7,6 C 78 % 1012 hPa 0,0 l/m S-SW -10,8 C -9,1 C 8,1 km/h (2 Bft)
28.01.2005 12:00 -5,5 C 62 % 1012 hPa 0,0 l/m S -11,6 C -6,1 C 3,9 km/h (1 Bft)
28.01.2005 13:00 -5,1 C 60 % 1011 hPa 0,0 l/m O -11,7 C -6,2 C 5,8 km/h (1 Bft)
28.01.2005 14:00 -4,0 C 55 % 1011 hPa 0,0 l/m S-SW -11,7 C -4,7 C 3,6 km/h (1 Bft)
28.01.2005 15:00 -5,1 C 58 % 1011 hPa 0,0 l/m S-SW -12,0 C -5,3 C 2,7 km/h (1 Bft)
28.01.2005 16:00 -6,1 C 62 % 1011 hPa 0,0 l/m N -12,1 C -6,1 C 0,1 km/h (0 Bft)
28.01.2005 17:00 -7,0 C 66 % 1012 hPa 0,0 l/m O-NO -12,2 C -7,1 C 1,6 km/h (1 Bft)
28.01.2005 18:00 -7,7 C 70 % 1012 hPa 0,0 l/m N -12,2 C -7,7 C 0,0 km/h (0 Bft)
28.01.2005 19:00 -8,3 C 73 % 1012 hPa 0,0 l/m N -12,3 C -8,3 C 0,0 km/h (0 Bft)
28.01.2005 20:00 -9,6 C 75 % 1012 hPa 0,0 l/m N -13,2 C -9,6 C 0,0 km/h (0 Bft)
28.01.2005 21:00 -10,5 C 76 % 1012 hPa 0,0 l/m N -13,9 C -10,5 C 0,0 km/h (0 Bft)
28.01.2005 22:00 -11,4 C 76 % 1013 hPa 0,0 l/m NW -14,8 C -11,5 C 0,8 km/h (0 Bft)
28.01.2005 23:00 -12,5 C 76 % 1013 hPa 0,0 l/m N -15,8 C -12,5 C 0,0 km/h (0 Bft)
29.01.2005 00:00 -13,3 C 76 % 1014 hPa 0,0 l/m N -16,6 C -13,3 C 0,0 km/h (0 Bft)
29.01.2005 01:00 -13,8 C 76 % 1014 hPa 0,0 l/m NW -17,1 C -13,9 C 1,9 km/h (1 Bft)
29.01.2005 02:00 -14,1 C 76 % 1015 hPa 0,0 l/m N-NW -17,4 C -16,6 C 7,6 km/h (2 Bft)
29.01.2005 03:00 -14,1 C 76 % 1015 hPa 0,0 l/m N-NW -17,4 C -17,7 C 9,8 km/h (2 Bft)
29.01.2005 04:00 -13,5 C 76 % 1015 hPa 0,0 l/m N -16,8 C -17,5 C 10,8 km/h (2 Bft)
29.01.2005 05:00 -12,5 C 76 % 1016 hPa 0,0 l/m N -15,8 C -16,4 C 10,9 km/h (2 Bft)
29.01.2005 06:00 -11,9 C 76 % 1017 hPa 0,0 l/m NO -15,3 C -20,2 C 16,1 km/h (3 Bft)
29.01.2005 07:00 -11,5 C 76 % 1017 hPa 0,0 l/m NO -14,9 C -20,3 C 16,1 km/h (3 Bft)
29.01.2005 08:00 -11,1 C 76 % 1018 hPa 0,0 l/m NO -14,5 C -19,3 C 15,8 km/h (3 Bft)
29.01.2005 09:00 -10,4 C 76 % 1019 hPa 0,0 l/m N-NO -13,8 C -16,8 C 13,2 km/h (3 Bft)
29.01.2005 10:00 -9,6 C 74 % 1019 hPa 0,0 l/m N-NO -13,3 C -16,3 C 14,0 km/h (3 Bft)
29.01.2005 11:00 -8,7 C 66 % 1020 hPa 0,0 l/m N-NO -13,8 C -15,6 C 14,8 km/h (3 Bft)
29.01.2005 12:00 -7,8 C 63 % 1020 hPa 0,0 l/m N -13,5 C -14,6 C 14,7 km/h (3 Bft)
29.01.2005 13:00 -6,3 C 58 % 1020 hPa 0,0 l/m N-NO -13,3 C -13,4 C 15,7 km/h (3 Bft)
29.01.2005 14:00 -6,4 C 58 % 1020 hPa 0,0 l/m N-NO -13,4 C -13,2 C 14,2 km/h (3 Bft)
29.01.2005 15:00 -7,6 C 61 % 1021 hPa 0,0 l/m N -13,7 C -13,4 C 13,0 km/h (3 Bft)
29.01.2005 16:00 -8,6 C 66 % 1022 hPa 0,0 l/m N -13,8 C -15,2 C 14,0 km/h (3 Bft)
29.01.2005 17:00 -9,8 C 71 % 1022 hPa 0,0 l/m N -14,1 C -14,4 C 11,4 km/h (2 Bft)
29.01.2005 18:00 -10,8 C 72 % 1023 hPa 0,0 l/m N-NO -14,8 C -12,4 C 4,9 km/h (1 Bft)
29.01.2005 19:00 -12,4 C 72 % 1024 hPa 0,0 l/m N -16,4 C -12,4 C 0,0 km/h (0 Bft)
29.01.2005 20:00 -12,2 C 72 % 1025 hPa 0,0 l/m N-NW -16,2 C -13,1 C 4,5 km/h (1 Bft)
29.01.2005 21:00 -12,0 C 72 % 1025 hPa 0,0 l/m N-NW -16,0 C -12,5 C 3,7 km/h (1 Bft)
29.01.2005 22:00 -12,8 C 72 % 1026 hPa 0,0 l/m NW -16,8 C -13,0 C 2,5 km/h (1 Bft)
29.01.2005 23:00 -12,3 C 72 % 1027 hPa 0,0 l/m NW -16,3 C -12,4 C 0,7 km/h (0 Bft)
30.01.2005 00:00 -12,1 C 72 % 1026 hPa 0,0 l/m N -16,0 C -12,1 C 0,0 km/h (0 Bft)
30.01.2005 01:00 -12,5 C 72 % 1027 hPa 0,0 l/m N -16,5 C -12,5 C 0,0 km/h (0 Bft)
30.01.2005 02:00 -11,7 C 72 % 1027 hPa 0,0 l/m N -15,7 C -11,7 C 0,0 km/h (0 Bft)
30.01.2005 03:00 -12,3 C 72 % 1027 hPa 0,0 l/m NW -16,3 C -12,5 C 1,6 km/h (1 Bft)
30.01.2005 04:00 -13,1 C 72 % 1027 hPa 0,0 l/m NW -17,0 C -13,1 C 0,8 km/h (0 Bft)
30.01.2005 05:00 -13,7 C 72 % 1027 hPa 0,0 l/m N -17,6 C -13,7 C 0,0 km/h (0 Bft)
30.01.2005 06:00 -14,4 C 72 % 1028 hPa 0,0 l/m W -18,3 C -14,4 C 0,9 km/h (0 Bft)
30.01.2005 07:00 -15,2 C 72 % 1028 hPa 0,0 l/m N -19,1 C -15,2 C 0,0 km/h (0 Bft)
30.01.2005 08:00 -15,5 C 72 % 1029 hPa 0,0 l/m N -19,4 C -15,5 C 0,0 km/h (0 Bft)
30.01.2005 09:00 -14,3 C 72 % 1029 hPa 0,0 l/m N -18,2 C -14,3 C 0,0 km/h (0 Bft)
30.01.2005 10:00 -12,3 C 72 % 1029 hPa 0,0 l/m S-SW -16,3 C -12,6 C 3,1 km/h (1 Bft)
30.01.2005 11:00 -8,8 C 67 % 1029 hPa 0,0 l/m S-SW -13,7 C -10,1 C 6,4 km/h (2 Bft)
30.01.2005 12:00 -6,0 C 55 % 1029 hPa 0,0 l/m SW -13,5 C -6,0 C 2,3 km/h (1 Bft)
30.01.2005 13:00 -3,5 C 47 % 1029 hPa 0,0 l/m N-NO -13,1 C -4,2 C 5,3 km/h (1 Bft)
30.01.2005 14:00 -3,0 C 46 % 1028 hPa 0,0 l/m NO -13,1 C -3,7 C 5,4 km/h (1 Bft)
30.01.2005 15:00 -4,0 C 49 % 1028 hPa 0,0 l/m NW -13,0 C -4,5 C 3,9 km/h (1 Bft)
30.01.2005 16:00 -5,3 C 56 % 1028 hPa 0,0 l/m N-NW -12,6 C -6,8 C 7,3 km/h (2 Bft)
30.01.2005 17:00 -5,9 C 58 % 1029 hPa 0,0 l/m N -12,8 C -6,3 C 2,9 km/h (1 Bft)
30.01.2005 18:00 -6,1 C 60 % 1029 hPa 0,0 l/m N -12,6 C -6,1 C 0,0 km/h (0 Bft)
30.01.2005 19:00 -6,2 C 63 % 1029 hPa 0,0 l/m S-SW -12,1 C -6,2 C 0,5 km/h (0 Bft)
30.01.2005 20:00 -6,2 C 66 % 1029 hPa 0,0 l/m S -11,5 C -6,7 C 2,3 km/h (1 Bft)
30.01.2005 21:00 -6,2 C 67 % 1029 hPa 0,0 l/m S -11,3 C -9,4 C 9,9 km/h (2 Bft)
30.01.2005 22:00 -6,3 C 65 % 1029 hPa 0,0 l/m S -11,7 C -9,6 C 10,5 km/h (2 Bft)
30.01.2005 23:00 -6,4 C 67 % 1029 hPa 0,0 l/m S -11,4 C -10,0 C 10,8 km/h (2 Bft)
Min-Datum _ 30.01.05 30.01.05 24.01.05 - - 30.01.05 29.01.05 24.01.05
_ Min-Zeit 08:01 13:53 05:00 - - 08:01 07:42 00:33
Minimum _ -15,8 C 45 % 1010 hPa - - -19,7 C -26,4 C 0,0 km/h (0 Bft)
Max-Datum _ 24.01.05 24.01.05 30.01.05 24.01.05 - 24.01.05 24.01.05 26.01.05
_ Max-Zeit 13:24 04:47 08:28 15:35 - 04:47 13:18 11:17
Maximum _ -0,9 C 95 % 1029 hPa 1,0 l/m - -3,5 C -1,3 C 31,8 km/h
N-NO (5 Bft)
Durchschnitt _ -7,6 C 75 % 1017 hPa #1,0 l/m N -11,4 C -11,2 C 9,0 km/h (2 Bft)

Durchschnitt Minimum Temp.-8,0 C
Durchschnitt Maximum Temp.-7,1 C